Time;durP1;ratioP1;P1;durP2;ratioP2;P2;SDS_P1;SDS_P2;PMS_P1;PMS_P2;Temp;Humidity;BMP_temperature;BMP_pressure;BME280_temperature;BME280_humidity;BME280_pressure;Samples;Min_cycle;Max_cycle;Signal;HPM_P1;HPM_P2
2024/01/08 00:01:59;;;;;;;3.40;3.10;;;;;;;-1.27;68.39;98434.97;4989513;28;20317;-74
2024/01/08 00:04:27;;;;;;;3.42;3.13;;;;;;;-1.42;68.34;98427.25;4990054;28;20235;-75
2024/01/08 00:06:54;;;;;;;3.03;2.83;;;;;;;-1.40;68.16;98438.59;4986555;28;20199;-75
2024/01/08 00:09:20;;;;;;;2.90;2.70;;;;;;;-1.45;68.62;98434.59;4988088;28;20251;-75
2024/01/08 00:11:47;;;;;;;3.00;2.80;;;;;;;-1.28;68.81;98433.28;5003519;28;20266;-75
2024/01/08 00:14:14;;;;;;;3.10;2.33;;;;;;;-1.28;68.48;98430.63;4971443;28;20210;-75
2024/01/08 00:16:40;;;;;;;3.28;2.97;;;;;;;-1.29;68.81;98428.94;4989884;28;20209;-75
2024/01/08 00:19:07;;;;;;;3.45;2.70;;;;;;;-1.19;68.21;98429.94;4989385;28;20617;-75
2024/01/08 00:21:35;;;;;;;3.00;2.80;;;;;;;-1.19;68.41;98432.59;5021376;28;20697;-75
2024/01/08 00:24:02;;;;;;;2.95;2.75;;;;;;;-1.12;68.35;98432.00;4988833;28;20290;-75
2024/01/08 00:26:29;;;;;;;4.50;3.47;;;;;;;-1.19;68.26;98429.94;5000613;28;20613;-75
2024/01/08 00:28:55;;;;;;;3.67;2.80;;;;;;;-1.19;68.49;98432.59;4992428;28;20219;-75
2024/01/08 00:31:22;;;;;;;3.65;2.78;;;;;;;-1.19;68.15;98430.78;4990903;28;20199;-75
2024/01/08 00:33:48;;;;;;;3.30;3.00;;;;;;;-1.15;67.68;98428.72;4992558;28;20203;-75
2024/01/08 00:36:15;;;;;;;3.42;3.13;;;;;;;-1.10;68.17;98439.84;4990933;28;20230;-75
2024/01/08 00:38:44;;;;;;;3.50;3.20;;;;;;;-1.13;68.37;98429.44;4989131;28;20564;-74
2024/01/08 00:41:11;;;;;;;3.53;3.22;;;;;;;-1.16;68.12;98429.69;4993746;28;20207;-75
2024/01/08 00:43:37;;;;;;;3.80;3.50;;;;;;;-1.15;68.70;98432.22;5029339;28;20211;-74
2024/01/08 00:46:05;;;;;;;4.90;3.83;;;;;;;-1.14;69.03;98438.38;5009718;28;20227;-75
2024/01/08 00:48:32;;;;;;;4.15;3.75;;;;;;;-1.10;68.13;98434.53;5011161;28;20751;-75
2024/01/08 00:51:00;;;;;;;3.80;3.50;;;;;;;-1.00;68.48;98432.00;5010845;28;20195;-75
2024/01/08 00:53:25;;;;;;;4.47;4.03;;;;;;;-1.04;68.50;98439.38;5009408;28;20218;-75
2024/01/08 00:55:53;;;;;;;3.60;3.20;;;;;;;-0.99;68.42;98442.50;4993368;28;20234;-75
2024/01/08 00:58:21;;;;;;;3.60;3.30;;;;;;;-1.04;67.99;98434.06;4995462;28;20199;-74
2024/01/08 01:00:50;;;;;;;3.85;3.55;;;;;;;-0.92;67.94;98435.72;4991946;28;20322;-75
2024/01/08 01:03:16;;;;;;;4.60;3.92;;;;;;;-0.91;67.50;98440.06;5008215;28;20199;-75
2024/01/08 01:05:43;;;;;;;4.30;3.92;;;;;;;-1.12;67.78;98441.75;4990954;28;20199;-75
2024/01/08 01:08:11;;;;;;;6.18;4.78;;;;;;;-1.30;68.16;98449.38;4984203;28;20229;-75
2024/01/08 01:10:37;;;;;;;6.82;5.10;;;;;;;-1.08;67.92;98437.91;4992006;28;20206;-75
2024/01/08 01:13:05;;;;;;;3.85;3.55;;;;;;;-1.19;67.65;98438.75;4991058;28;20203;-75
2024/01/08 01:15:32;;;;;;;4.97;4.45;;;;;;;-1.25;67.67;98441.84;4991091;28;20207;-75
2024/01/08 01:18:00;;;;;;;5.80;4.38;;;;;;;-1.22;67.57;98443.44;4991655;28;20222;-75
2024/01/08 01:20:27;;;;;;;5.15;4.45;;;;;;;-1.23;67.98;98444.41;5005545;28;20265;-74
2024/01/08 01:22:54;;;;;;;4.25;3.90;;;;;;;-1.15;67.66;98442.00;4973367;28;20552;-75
2024/01/08 01:25:20;;;;;;;4.55;4.25;;;;;;;-1.09;66.82;98444.19;4991576;28;20211;-74
2024/01/08 01:27:46;;;;;;;4.10;3.75;;;;;;;-1.12;67.68;98452.38;4991484;28;20561;-74
2024/01/08 01:30:15;;;;;;;4.57;4.18;;;;;;;-1.11;67.92;98449.63;4990295;28;20327;-75
2024/01/08 01:32:41;;;;;;;4.25;3.95;;;;;;;-1.09;68.00;98457.47;4998368;28;20691;-74
2024/01/08 01:35:08;;;;;;;4.10;3.80;;;;;;;-1.06;67.91;98458.06;4991048;28;20337;-74
2024/01/08 01:37:35;;;;;;;4.30;3.97;;;;;;;-1.21;67.63;98459.25;4991190;28;20218;-74
2024/01/08 01:40:01;;;;;;;4.93;4.47;;;;;;;-1.12;67.75;98458.53;4999429;28;20225;-73
2024/01/08 01:42:28;;;;;;;4.88;4.38;;;;;;;-1.25;67.72;98451.63;4991416;28;20199;-74
2024/01/08 01:44:55;;;;;;;4.40;4.05;;;;;;;-1.24;68.37;98459.47;4991439;28;20741;-74
2024/01/08 01:47:23;;;;;;;4.93;3.97;;;;;;;-1.05;67.80;98453.59;4992257;28;20203;-75
2024/01/08 01:49:50;;;;;;;4.70;4.35;;;;;;;-1.13;67.58;98448.88;4987358;28;20219;-75
2024/01/08 01:52:17;;;;;;;4.68;4.28;;;;;;;-1.03;67.51;98451.69;4987164;28;20669;-74
2024/01/08 01:54:44;;;;;;;4.35;3.63;;;;;;;-0.99;67.26;98452.28;4991776;28;20201;-74
2024/01/08 01:57:10;;;;;;;5.43;4.10;;;;;;;-1.00;67.12;98454.09;4990039;28;20217;-74
2024/01/08 01:59:37;;;;;;;4.88;4.47;;;;;;;-1.14;67.14;98454.31;4990351;28;20215;-75
2024/01/08 02:02:05;;;;;;;4.93;4.53;;;;;;;-0.95;67.49;98456.38;4989678;28;20217;-74
2024/01/08 02:04:33;;;;;;;4.53;4.18;;;;;;;-1.09;67.47;98447.69;4990751;28;20211;-74
2024/01/08 02:07:01;;;;;;;4.68;4.28;;;;;;;-0.85;67.21;98444.91;4988997;28;20317;-74
2024/01/08 02:09:28;;;;;;;4.75;4.28;;;;;;;-0.90;68.34;98449.75;4985724;28;20219;-74
2024/01/08 02:11:55;;;;;;;5.22;4.72;;;;;;;-0.86;67.78;98448.53;4988792;28;20217;-75
2024/01/08 02:14:21;;;;;;;5.10;4.60;;;;;;;-1.01;67.59;98444.44;4991807;28;20205;-74
2024/01/08 02:16:48;;;;;;;4.90;4.50;;;;;;;-1.05;67.53;98435.88;4991882;28;20219;-74
2024/01/08 02:19:14;;;;;;;4.70;4.30;;;;;;;-1.20;68.07;98433.53;4989956;28;20218;-74
2024/01/08 02:21:42;;;;;;;5.22;4.80;;;;;;;-0.94;68.03;98444.78;4989026;28;20211;-74
2024/01/08 02:24:10;;;;;;;4.88;4.47;;;;;;;-0.88;67.86;98439.00;4990394;28;20213;-74
2024/01/08 02:26:37;;;;;;;4.80;4.40;;;;;;;-0.95;67.27;98433.31;4990078;28;20203;-74
2024/01/08 02:29:04;;;;;;;5.00;4.60;;;;;;;-0.90;66.95;98431.16;4990672;28;20237;-74
2024/01/08 02:31:30;;;;;;;5.00;4.60;;;;;;;-0.96;67.02;98431.63;4988947;28;20222;-74
2024/01/08 02:33:57;;;;;;;4.60;4.00;;;;;;;-0.99;66.30;98431.03;4997533;28;20557;-74
2024/01/08 02:36:23;;;;;;;4.53;4.13;;;;;;;-0.99;65.76;98431.03;4966894;28;20850;-74
2024/01/08 02:38:50;;;;;;;4.55;3.70;;;;;;;-0.95;64.99;98430.66;4991177;28;20573;-74
2024/01/08 02:41:18;;;;;;;4.78;4.38;;;;;;;-1.14;65.95;98425.09;4990342;28;20211;-75
2024/01/08 02:43:45;;;;;;;4.65;4.25;;;;;;;-1.12;66.22;98425.84;4989540;28;20203;-75
2024/01/08 02:46:13;;;;;;;5.47;4.97;;;;;;;-1.08;66.54;98429.94;4986485;28;20203;-75
2024/01/08 02:48:39;;;;;;;4.80;4.30;;;;;;;-1.12;66.32;98431.16;5007205;28;20211;-74
2024/01/08 02:51:06;;;;;;;5.00;4.60;;;;;;;-1.23;66.43;98431.97;4988727;28;20203;-75
2024/01/08 02:53:32;;;;;;;3.92;3.63;;;;;;;-1.29;65.97;98439.56;4989554;28;20199;-75
2024/01/08 02:55:58;;;;;;;5.00;4.50;;;;;;;-1.24;66.90;98440.06;4988219;28;20226;-75
2024/01/08 02:58:26;;;;;;;4.65;4.25;;;;;;;-1.13;66.30;98437.41;4990689;28;20217;-75
2024/01/08 03:00:53;;;;;;;4.63;4.22;;;;;;;-1.05;66.27;98437.69;5000752;28;20203;-75
2024/01/08 03:03:19;;;;;;;4.70;4.30;;;;;;;-1.05;67.12;98437.69;4991379;28;20291;-75
2024/01/08 03:05:46;;;;;;;5.18;4.70;;;;;;;-0.95;66.06;98445.75;4991504;28;20665;-74
2024/01/08 03:08:12;;;;;;;5.00;4.50;;;;;;;-0.88;66.03;98450.47;5025820;28;20260;-75
2024/01/08 03:10:39;;;;;;;4.70;4.40;;;;;;;-1.34;67.00;98447.06;5011750;28;20218;-74
2024/01/08 03:13:06;;;;;;;5.03;4.63;;;;;;;-1.26;67.53;98452.59;5002852;28;20274;-75
2024/01/08 03:15:34;;;;;;;5.32;4.55;;;;;;;-1.24;67.90;98443.56;4996207;28;20214;-75
2024/01/08 03:18:01;;;;;;;4.82;4.32;;;;;;;-1.14;67.44;98449.00;4992826;28;20205;-75
2024/01/08 03:20:28;;;;;;;5.20;4.70;;;;;;;-1.20;67.69;98452.13;4991974;28;20207;-76
2024/01/08 03:22:55;;;;;;;4.60;4.20;;;;;;;-1.02;67.27;98448.06;4990153;28;20195;-76
2024/01/08 03:25:21;;;;;;;4.82;4.43;;;;;;;-1.09;67.22;98446.84;4987403;28;20203;-75
2024/01/08 03:27:47;;;;;;;4.88;4.47;;;;;;;-1.18;67.90;98453.69;4989935;28;20207;-75
2024/01/08 03:30:15;;;;;;;4.80;4.40;;;;;;;-1.04;67.79;98457.97;4986698;28;20231;-75
2024/01/08 03:32:43;;;;;;;4.93;4.53;;;;;;;-1.04;67.67;98444.69;4989779;28;20203;-75
2024/01/08 03:35:09;;;;;;;5.50;5.00;;;;;;;-1.01;67.78;98452.41;5019893;28;20242;-75
2024/01/08 03:37:36;;;;;;;5.43;4.97;;;;;;;-1.11;67.84;98451.44;4991393;28;20211;-75
2024/01/08 03:40:04;;;;;;;5.30;4.80;;;;;;;-1.22;67.35;98446.09;4990000;28;20187;-75
2024/01/08 03:42:31;;;;;;;5.38;4.88;;;;;;;-1.26;67.31;98450.78;4990049;28;20605;-75
2024/01/08 03:44:59;;;;;;;5.10;4.60;;;;;;;-1.48;67.79;98450.75;4989563;28;20758;-75
2024/01/08 03:47:26;;;;;;;5.82;5.28;;;;;;;-1.37;67.97;98453.44;4991685;28;20206;-74
2024/01/08 03:49:54;;;;;;;5.30;4.90;;;;;;;-1.37;68.77;98454.28;4988338;28;20223;-74
2024/01/08 03:52:24;;;;;;;4.90;4.50;;;;;;;-1.23;68.76;98449.72;4988424;28;20203;-74
2024/01/08 03:54:50;;;;;;;5.30;4.90;;;;;;;-1.16;68.28;98451.78;5023104;28;20207;-74
2024/01/08 03:57:17;;;;;;;5.03;4.63;;;;;;;-1.33;68.94;98452.25;4996281;28;20581;-74
2024/01/08 03:59:44;;;;;;;5.43;5.03;;;;;;;-1.52;68.64;98449.28;4992356;28;20210;-74
2024/01/08 04:02:11;;;;;;;4.70;4.30;;;;;;;-1.54;68.67;98446.75;4993638;28;20208;-75
2024/01/08 04:04:40;;;;;;;5.80;5.30;;;;;;;-1.52;69.64;98444.81;4992451;28;20213;-75
2024/01/08 04:07:08;;;;;;;5.28;4.88;;;;;;;-1.28;68.69;98446.56;4990942;28;20211;-75
2024/01/08 04:09:35;;;;;;;5.15;4.57;;;;;;;-1.22;68.42;98457.56;4990503;28;21168;-74
2024/01/08 04:12:04;;;;;;;5.25;4.50;;;;;;;-1.48;68.38;98450.75;4991433;28;20290;-74
2024/01/08 04:14:30;;;;;;;4.85;4.43;;;;;;;-1.51;67.85;98458.94;4993347;28;20199;-74
2024/01/08 04:16:57;;;;;;;4.88;4.47;;;;;;;-1.42;68.22;98456.44;4992526;28;20289;-75
2024/01/08 04:19:24;;;;;;;6.47;4.80;;;;;;;-1.43;67.87;98456.56;5022651;28;20207;-75
2024/01/08 04:21:51;;;;;;;4.80;4.40;;;;;;;-1.56;67.96;98459.28;5009182;28;20290;-75
2024/01/08 04:24:18;;;;;;;4.95;4.55;;;;;;;-1.53;69.00;98461.72;4989774;28;20207;-75
2024/01/08 04:26:46;;;;;;;5.30;4.80;;;;;;;-1.51;68.60;98457.13;4987895;28;20220;-75
2024/01/08 04:29:14;;;;;;;4.40;4.00;;;;;;;-1.61;67.34;98472.06;4990359;28;20572;-74
2024/01/08 04:31:40;;;;;;;4.10;3.50;;;;;;;-1.68;66.96;98470.84;4991051;28;20207;-74
2024/01/08 04:34:08;;;;;;;4.05;3.75;;;;;;;-1.63;66.73;98458.09;4973503;28;20223;-74
2024/01/08 04:36:40;;;;;;;3.92;3.63;;;;;;;-1.59;65.80;98464.81;4988687;28;20210;-74
2024/01/08 04:39:07;;;;;;;4.22;3.83;;;;;;;-1.57;65.39;98472.66;4993205;28;20203;-75
2024/01/08 04:41:35;;;;;;;4.57;4.10;;;;;;;-1.51;65.13;98473.06;4990738;28;20661;-75
2024/01/08 04:44:01;;;;;;;4.50;4.10;;;;;;;-1.55;64.47;98470.75;4992273;28;20204;-74
2024/01/08 04:46:28;;;;;;;4.00;3.60;;;;;;;-1.39;64.26;98474.78;4987885;28;20680;-75
2024/01/08 04:48:54;;;;;;;4.13;3.83;;;;;;;-1.54;64.46;98472.44;4990056;28;20209;-74
2024/01/08 04:51:22;;;;;;;4.38;3.90;;;;;;;-1.45;65.11;98472.59;4992276;28;20223;-74
2024/01/08 04:53:50;;;;;;;4.25;3.95;;;;;;;-1.65;65.10;98478.56;4992175;28;20211;-75
2024/01/08 04:56:20;;;;;;;4.45;4.15;;;;;;;-1.66;65.29;98478.69;4989764;28;20538;-74
2024/01/08 04:58:50;;;;;;;4.15;3.85;;;;;;;-1.50;65.67;98476.56;4968074;28;20522;-75
2024/01/08 05:01:17;;;;;;;4.38;4.00;;;;;;;-1.50;65.81;98481.88;4987162;28;20290;-75
2024/01/08 05:03:44;;;;;;;5.88;4.30;;;;;;;-1.56;65.29;98487.63;4990468;28;20211;-74
2024/01/08 05:06:10;;;;;;;4.00;3.70;;;;;;;-1.55;64.36;98482.22;5006688;28;20550;-74
2024/01/08 05:08:37;;;;;;;4.60;4.20;;;;;;;-1.69;64.54;98479.75;4992412;28;20199;-74
2024/01/08 05:11:04;;;;;;;4.45;4.05;;;;;;;-1.83;65.77;98475.47;4989627;28;20222;-75
2024/01/08 05:13:31;;;;;;;4.05;3.70;;;;;;;-1.84;66.85;98480.91;4993268;28;20629;-75
2024/01/08 05:15:59;;;;;;;4.45;4.05;;;;;;;-1.74;64.84;98481.91;4992895;28;20207;-74
2024/01/08 05:18:26;;;;;;;4.00;3.70;;;;;;;-1.66;65.42;98490.16;4992762;28;20199;-75
2024/01/08 05:20:52;;;;;;;4.63;4.22;;;;;;;-1.72;65.26;98480.84;4990722;28;20227;-75
2024/01/08 05:23:19;;;;;;;4.07;3.67;;;;;;;-1.93;65.58;98492.16;4991524;28;20199;-71
2024/01/08 05:25:46;;;;;;;4.50;4.10;;;;;;;-1.99;65.66;98492.66;4990069;28;20196;-71
2024/01/08 05:28:14;;;;;;;5.18;4.68;;;;;;;-1.83;65.21;98469.31;4986655;28;20210;-71
2024/01/08 05:30:41;;;;;;;4.70;4.30;;;;;;;-1.60;65.38;98489.66;4994115;28;20274;-75
2024/01/08 05:33:09;;;;;;;4.60;4.20;;;;;;;-1.55;65.45;98492.81;4989678;28;20301;-74
2024/01/08 05:35:37;;;;;;;4.20;3.90;;;;;;;-1.68;65.69;98496.53;4990219;28;20956;-74
2024/01/08 05:38:04;;;;;;;4.80;4.40;;;;;;;-1.71;66.17;98500.25;5024712;28;20254;-72
2024/01/08 05:40:30;;;;;;;4.72;4.35;;;;;;;-1.59;65.86;98495.81;4984467;28;20290;-72
2024/01/08 05:42:57;;;;;;;4.88;4.38;;;;;;;-1.89;66.15;98498.94;4990182;28;20199;-72
2024/01/08 05:45:24;;;;;;;4.25;3.85;;;;;;;-1.74;65.21;98503.97;4991917;28;20195;-73
2024/01/08 05:47:51;;;;;;;8.00;5.00;;;;;;;-1.77;65.80;98501.56;4986699;28;20850;-72
2024/01/08 05:50:20;;;;;;;4.45;4.05;;;;;;;-1.92;65.05;98499.16;4991505;28;20231;-72
2024/01/08 05:52:47;;;;;;;5.07;4.57;;;;;;;-1.83;66.11;98504.66;4988020;28;20281;-72
2024/01/08 05:55:14;;;;;;;5.10;4.70;;;;;;;-2.03;65.66;98503.47;4997823;28;20210;-72
2024/01/08 05:57:41;;;;;;;5.35;4.65;;;;;;;-2.18;66.54;98507.22;5006740;28;20220;-72
2024/01/08 06:00:09;;;;;;;6.30;5.70;;;;;;;-2.10;67.24;98506.69;4991269;28;20223;-72
2024/01/08 06:02:36;;;;;;;5.00;4.60;;;;;;;-2.10;66.29;98502.22;4986578;28;20691;-72
2024/01/08 06:05:02;;;;;;;5.25;4.75;;;;;;;-2.12;65.99;98505.94;4985799;28;20665;-72
2024/01/08 06:07:30;;;;;;;5.03;4.63;;;;;;;-1.94;66.24;98511.69;5001427;28;20211;-72
2024/01/08 06:09:56;;;;;;;5.40;4.90;;;;;;;-1.91;66.68;98508.81;4978908;28;20266;-72
2024/01/08 06:12:22;;;;;;;6.47;5.50;;;;;;;-1.78;65.04;98517.56;4988765;28;20207;-72
2024/01/08 06:14:49;;;;;;;5.80;5.28;;;;;;;-2.11;66.17;98516.44;4988768;28;20278;-73
2024/01/08 06:17:17;;;;;;;4.95;4.45;;;;;;;-2.01;65.87;98521.09;4991406;28;20675;-71
2024/01/08 06:19:43;;;;;;;5.68;5.15;;;;;;;-2.09;66.61;98525.13;4968107;28;20203;-78
2024/01/08 06:22:10;;;;;;;6.05;5.45;;;;;;;-1.06;75.46;98515.66;4998989;28;20621;-71
2024/01/08 06:24:38;;;;;;;6.72;4.50;;;;;;;0.28;69.56;98512.91;4990408;28;20484;-72
2024/01/08 06:27:05;;;;;;;4.57;4.18;;;;;;;-0.54;62.37;98516.91;4991112;28;20243;-73
2024/01/08 06:29:31;;;;;;;4.97;4.55;;;;;;;-1.30;63.15;98522.84;4988358;28;20322;-72
2024/01/08 06:31:58;;;;;;;6.28;4.60;;;;;;;-1.40;62.25;98520.88;4989237;28;20251;-73
2024/01/08 06:34:24;;;;;;;4.57;4.15;;;;;;;-1.59;63.46;98523.19;4987043;28;20294;-72
2024/01/08 06:36:52;;;;;;;4.45;4.05;;;;;;;-1.67;62.68;98522.94;4989379;28;20219;-72
2024/01/08 06:39:19;;;;;;;5.03;4.63;;;;;;;-1.66;63.20;98524.63;4987874;28;20204;-71
2024/01/08 06:41:48;;;;;;;4.70;4.28;;;;;;;-1.79;62.96;98521.19;4992458;28;20385;-71
2024/01/08 06:44:18;;;;;;;4.85;4.45;;;;;;;-1.76;63.89;98526.28;5007442;28;20195;-72
2024/01/08 06:46:46;;;;;;;4.85;4.45;;;;;;;-1.77;63.56;98519.28;5012140;28;20243;-72
2024/01/08 06:49:12;;;;;;;4.90;4.40;;;;;;;-1.82;63.99;98526.72;5006812;28;20211;-72
2024/01/08 06:51:40;;;;;;;4.40;4.00;;;;;;;-1.76;63.84;98519.16;4990975;28;20226;-72
2024/01/08 06:54:07;;;;;;;5.20;4.80;;;;;;;-1.58;63.25;98524.03;4989352;28;20214;-72
2024/01/08 06:56:33;;;;;;;6.25;4.80;;;;;;;-1.82;64.09;98521.41;4986716;28;20203;-72
2024/01/08 06:59:03;;;;;;;6.78;4.82;;;;;;;-1.73;64.10;98523.41;4987909;28;20199;-72
2024/01/08 07:01:30;;;;;;;5.00;4.60;;;;;;;-1.70;63.57;98525.81;4991002;28;20553;-72
2024/01/08 07:03:57;;;;;;;5.20;4.70;;;;;;;-1.66;63.26;98534.41;4969444;28;21122;-71
2024/01/08 07:06:24;;;;;;;5.00;4.63;;;;;;;-1.85;63.42;98522.47;4987336;28;20726;-77
2024/01/08 07:08:50;;;;;;;5.30;4.80;;;;;;;-2.06;64.08;98542.63;4989097;28;20351;-77
2024/01/08 07:11:21;;;;;;;5.20;4.70;;;;;;;-1.95;64.28;98536.56;4970436;28;20719;-72
2024/01/08 07:13:48;;;;;;;4.93;4.53;;;;;;;-2.02;64.05;98541.44;5002889;28;20210;-72
2024/01/08 07:16:18;;;;;;;5.00;4.47;;;;;;;-2.13;64.25;98539.56;4987384;28;20290;-72
2024/01/08 07:18:45;;;;;;;5.05;4.65;;;;;;;-2.07;65.43;98536.47;4985305;28;20205;-72
2024/01/08 07:21:16;;;;;;;5.53;4.95;;;;;;;-2.22;64.51;98550.81;4988250;28;20896;-72
2024/01/08 07:23:43;;;;;;;5.93;5.22;;;;;;;-2.21;64.90;98541.91;4989123;28;20544;-72
2024/01/08 07:26:10;;;;;;;5.63;4.80;;;;;;;-1.85;65.09;98542.84;5005173;28;20223;-72
2024/01/08 07:28:36;;;;;;;5.93;5.32;;;;;;;-1.91;64.92;98546.78;4989149;28;20209;-72
2024/01/08 07:31:05;;;;;;;5.35;4.85;;;;;;;-1.92;65.34;98536.28;4992639;28;20219;-72
2024/01/08 07:33:33;;;;;;;5.90;5.30;;;;;;;-1.68;64.59;98547.78;4995863;28;20245;-72
2024/01/08 07:35:59;;;;;;;4.50;4.10;;;;;;;-1.74;64.13;98546.41;4988099;28;20269;-72
2024/01/08 07:38:27;;;;;;;6.13;5.35;;;;;;;-1.88;64.20;98551.88;4997014;28;20214;-72
2024/01/08 07:40:54;;;;;;;4.80;4.40;;;;;;;-1.97;65.15;98543.75;4995890;28;20202;-72
2024/01/08 07:43:20;;;;;;;5.50;4.93;;;;;;;-1.92;64.99;98552.22;4995860;28;20207;-72
2024/01/08 07:45:47;;;;;;;5.25;4.82;;;;;;;-1.99;65.14;98545.69;4995280;28;20199;-72
2024/01/08 07:48:13;;;;;;;5.90;5.30;;;;;;;-2.06;64.40;98555.88;5010719;28;20213;-73
2024/01/08 07:50:41;;;;;;;4.97;4.47;;;;;;;-2.13;65.25;98555.47;4994993;28;20222;-72
2024/01/08 07:53:08;;;;;;;5.53;4.75;;;;;;;-2.18;65.08;98554.94;4993422;28;20938;-72
2024/01/08 07:55:34;;;;;;;6.20;4.20;;;;;;;-2.34;65.15;98564.97;4994034;28;20257;-72
2024/01/08 07:58:01;;;;;;;5.47;4.82;;;;;;;-2.08;65.72;98563.94;4995242;28;20286;-72
2024/01/08 08:00:27;;;;;;;6.45;5.65;;;;;;;-1.84;64.95;98566.63;4995284;28;20199;-72
2024/01/08 08:02:55;;;;;;;5.75;4.80;;;;;;;-1.89;65.11;98570.56;4996538;28;20211;-72
2024/01/08 08:05:21;;;;;;;5.65;5.15;;;;;;;-1.86;65.46;98568.53;4993977;28;20771;-72
2024/01/08 08:07:49;;;;;;;5.70;5.20;;;;;;;-2.01;65.34;98568.81;4993869;28;20202;-72
2024/01/08 08:10:16;;;;;;;5.40;4.90;;;;;;;-2.14;66.25;98569.69;4993902;28;20210;-72
2024/01/08 08:12:42;;;;;;;7.32;6.50;;;;;;;-2.03;64.60;98572.41;4991327;28;20233;-72
2024/01/08 08:15:10;;;;;;;6.28;5.68;;;;;;;-1.87;65.67;98571.28;4996933;28;20286;-72
2024/01/08 08:17:39;;;;;;;5.03;4.63;;;;;;;-1.81;64.80;98576.16;4992305;28;20194;-72
2024/01/08 08:20:09;;;;;;;5.35;4.85;;;;;;;-1.78;64.47;98579.44;4990284;28;20669;-72
2024/01/08 08:22:37;;;;;;;5.30;4.80;;;;;;;-1.64;64.53;98577.59;4988657;28;20195;-72
2024/01/08 08:25:06;;;;;;;4.95;4.45;;;;;;;-1.94;64.69;98583.28;5023596;28;20199;-71
2024/01/08 08:27:35;;;;;;;4.63;4.22;;;;;;;-2.24;64.78;98583.69;4991621;28;20298;-71
2024/01/08 08:30:04;;;;;;;5.05;4.60;;;;;;;-2.15;64.84;98583.88;4992600;28;20199;-72
2024/01/08 08:32:30;;;;;;;5.05;4.55;;;;;;;-2.07;64.38;98584.19;4995946;28;20229;-72
2024/01/08 08:34:57;;;;;;;5.82;5.30;;;;;;;-1.83;64.66;98583.38;4994448;28;20553;-72
2024/01/08 08:37:24;;;;;;;5.30;4.72;;;;;;;-1.68;64.10;98587.56;4995230;28;20728;-72
2024/01/08 08:39:50;;;;;;;5.32;4.70;;;;;;;-1.42;64.37;98583.00;4996051;28;20211;-72
2024/01/08 08:42:18;;;;;;;7.03;4.75;;;;;;;-1.46;64.01;98586.84;4990315;28;20200;-72
2024/01/08 08:44:44;;;;;;;5.25;4.53;;;;;;;-1.76;63.67;98590.78;4992327;28;20208;-72
2024/01/08 08:47:11;;;;;;;4.60;4.20;;;;;;;-1.68;64.73;98611.44;4992858;28;20426;-72
2024/01/08 08:49:39;;;;;;;5.90;5.15;;;;;;;-1.60;64.20;98595.78;4990724;28;20199;-72
2024/01/08 08:52:06;;;;;;;6.60;5.70;;;;;;;-1.57;64.39;98595.56;4992245;28;20223;-72
2024/01/08 08:54:32;;;;;;;5.80;5.25;;;;;;;-1.68;64.04;98608.81;4983825;28;20301;-72
2024/01/08 08:56:59;;;;;;;6.03;4.80;;;;;;;-1.61;64.36;98604.72;4990148;28;20215;-72
2024/01/08 08:59:27;;;;;;;4.90;4.50;;;;;;;-1.48;64.08;98597.56;4991988;28;20203;-73
2024/01/08 09:01:54;;;;;;;5.05;4.57;;;;;;;-1.41;63.45;98596.16;4991938;28;20203;-73
2024/01/08 09:04:23;;;;;;;5.00;4.50;;;;;;;-1.44;64.13;98595.53;4993308;28;20210;-72
2024/01/08 09:06:49;;;;;;;5.10;4.65;;;;;;;-1.75;63.58;98607.53;5006430;28;20213;-72
2024/01/08 09:09:16;;;;;;;4.75;4.32;;;;;;;-1.57;64.42;98610.66;4991285;28;20214;-72
2024/01/08 09:11:42;;;;;;;5.60;4.40;;;;;;;-1.43;63.30;98614.00;4987143;28;20238;-72
2024/01/08 09:14:09;;;;;;;5.40;4.90;;;;;;;-1.64;63.23;98610.28;4990774;28;20298;-72
2024/01/08 09:16:38;;;;;;;4.65;4.20;;;;;;;-1.51;63.42;98610.22;4991740;28;20210;-72
2024/01/08 09:19:05;;;;;;;4.82;4.20;;;;;;;-1.52;63.09;98588.13;4991530;28;20239;-73
2024/01/08 09:21:31;;;;;;;5.32;4.82;;;;;;;-1.50;61.79;98615.41;5006929;28;20569;-72
2024/01/08 09:23:58;;;;;;;5.20;4.70;;;;;;;-1.46;63.30;98624.00;4993085;28;20723;-72
2024/01/08 09:26:25;;;;;;;4.55;4.15;;;;;;;-1.44;62.97;98630.88;4992592;28;20199;-72
2024/01/08 09:28:52;;;;;;;5.28;4.68;;;;;;;-1.60;62.87;98632.94;4991970;28;20207;-72
2024/01/08 09:31:19;;;;;;;4.68;4.20;;;;;;;-2.02;62.94;98631.59;4990266;28;20220;-72
2024/01/08 09:33:48;;;;;;;4.93;4.43;;;;;;;-2.25;64.10;98646.44;5021877;28;20306;-72
2024/01/08 09:36:15;;;;;;;4.57;4.18;;;;;;;-2.04;65.02;98633.50;4991336;28;20636;-72
2024/01/08 09:38:42;;;;;;;4.75;4.20;;;;;;;-1.93;64.40;98640.69;4992298;28;20203;-72
2024/01/08 09:41:10;;;;;;;5.30;4.80;;;;;;;-1.86;64.33;98642.78;4989867;28;20199;-72
2024/01/08 09:43:39;;;;;;;4.00;3.70;;;;;;;-1.58;63.46;98644.28;4991761;28;20203;-72
2024/01/08 09:46:06;;;;;;;5.32;4.53;;;;;;;-1.76;62.35;98640.34;4990249;28;20235;-72
2024/01/08 09:48:35;;;;;;;4.40;4.00;;;;;;;-2.10;63.03;98634.78;4991004;28;20270;-72
2024/01/08 09:51:04;;;;;;;4.82;4.32;;;;;;;-1.98;63.11;98637.53;4989645;28;20898;-72
2024/01/08 09:53:32;;;;;;;5.20;4.70;;;;;;;-1.98;62.76;98640.19;4991680;28;20210;-72
2024/01/08 09:55:59;;;;;;;4.80;4.30;;;;;;;-1.72;63.80;98639.16;4990948;28;20199;-72
2024/01/08 09:58:26;;;;;;;4.63;4.22;;;;;;;-1.74;63.22;98633.13;4989693;28;20294;-71
2024/01/08 10:00:53;;;;;;;4.80;4.30;;;;;;;-1.67;63.10;98645.00;4987301;28;20538;-72
2024/01/08 10:03:20;;;;;;;5.50;4.32;;;;;;;-1.83;62.50;98649.69;4988092;28;20199;-71
2024/01/08 10:05:46;;;;;;;5.20;4.70;;;;;;;-1.72;63.08;98642.66;4989665;28;20732;-72
2024/01/08 10:08:14;;;;;;;4.78;4.38;;;;;;;-1.54;62.59;98643.13;4991768;28;20214;-72
2024/01/08 10:10:40;;;;;;;4.60;4.10;;;;;;;-1.52;62.71;98649.16;4993102;28;20314;-72
2024/01/08 10:13:09;;;;;;;5.93;4.70;;;;;;;-1.94;61.88;98654.91;4992068;28;20238;-71
2024/01/08 10:15:35;;;;;;;5.75;4.85;;;;;;;-1.94;62.96;98653.09;4995334;28;20254;-72
2024/01/08 10:18:06;;;;;;;5.30;4.80;;;;;;;-1.60;62.55;98643.56;5021599;28;20275;-72
2024/01/08 10:20:32;;;;;;;5.10;4.60;;;;;;;-1.79;61.71;98637.91;5002805;28;20203;-72
2024/01/08 10:23:06;;;;;;;4.55;4.15;;;;;;;-1.58;62.01;98639.00;5006094;28;20224;-72
2024/01/08 10:25:34;;;;;;;4.93;4.50;;;;;;;-1.63;61.86;98633.19;4988214;28;20203;-72
2024/01/08 10:28:02;;;;;;;4.65;4.25;;;;;;;-1.43;61.52;98629.91;4994713;28;20211;-72
2024/01/08 10:30:28;;;;;;;5.30;4.80;;;;;;;-1.22;60.64;98631.94;4995873;28;20241;-73
2024/01/08 10:32:58;;;;;;;5.45;4.95;;;;;;;-1.22;61.31;98638.09;4990240;28;20677;-73
2024/01/08 10:35:25;;;;;;;6.25;4.40;;;;;;;-1.35;60.70;98637.31;4989177;28;20211;-72
2024/01/08 10:37:52;;;;;;;6.07;4.53;;;;;;;-1.60;60.61;98637.41;4991732;28;20210;-73
2024/01/08 10:40:20;;;;;;;4.88;4.47;;;;;;;-1.71;61.75;98632.91;4990203;28;20207;-72
2024/01/08 10:42:48;;;;;;;4.35;3.95;;;;;;;-1.66;63.19;98635.22;4987986;28;20218;-72
2024/01/08 10:45:14;;;;;;;4.40;4.00;;;;;;;-1.51;61.35;98623.47;4990406;28;20207;-72
2024/01/08 10:47:48;;;;;;;5.30;4.60;;;;;;;-1.71;62.17;98624.94;5001347;28;20214;-72
2024/01/08 10:50:14;;;;;;;7.72;4.80;;;;;;;-1.29;61.80;98618.25;5004508;28;20207;-71
2024/01/08 10:52:45;;;;;;;4.95;4.20;;;;;;;-1.18;60.78;98612.16;4989829;28;20222;-73
2024/01/08 10:55:15;;;;;;;4.70;4.30;;;;;;;-1.36;61.12;98614.41;4989791;28;20213;-72
2024/01/08 10:57:56;;;;;;;5.07;4.47;;;;;;;-1.13;61.38;98605.56;4998049;28;20215;-73
2024/01/08 11:00:24;;;;;;;5.15;4.65;;;;;;;-1.16;60.16;98613.75;4989219;28;20704;-72
2024/01/08 11:02:52;;;;;;;5.80;5.30;;;;;;;-1.25;61.17;98617.09;4984518;28;20211;-72
2024/01/08 11:05:20;;;;;;;5.07;4.68;;;;;;;-1.19;61.66;98621.94;4997304;28;20215;-72
2024/01/08 11:07:49;;;;;;;6.40;4.80;;;;;;;-1.38;60.38;98618.97;4988047;28;20239;-73
2024/01/08 11:10:16;;;;;;;4.90;4.40;;;;;;;-1.37;61.08;98623.31;4983641;28;20213;-72
2024/01/08 11:12:43;;;;;;;4.75;4.32;;;;;;;-1.38;59.87;98611.84;5000225;28;20318;-72
2024/01/08 11:15:13;;;;;;;5.13;4.60;;;;;;;-1.21;60.71;98617.72;4984770;28;20243;-73
2024/01/08 11:17:50;;;;;;;5.15;4.65;;;;;;;-1.40;61.01;98624.38;4990515;28;20290;-72
2024/01/08 11:20:40;;;;;;;4.35;3.88;;;;;;;-1.65;60.22;98624.50;4990138;28;20205;-72
2024/01/08 11:23:37;;;;;;;5.03;4.55;;;;;;;-1.65;60.50;98624.50;4986730;28;20200;-72
2024/01/08 11:26:05;;;;;;;5.35;4.65;;;;;;;-1.34;61.11;98617.78;4990304;28;20210;-73
2024/01/08 11:28:34;;;;;;;4.57;4.15;;;;;;;-1.16;61.06;98615.56;4990498;28;20731;-73
2024/01/08 11:31:25;;;;;;;4.55;4.15;;;;;;;-1.12;59.91;98611.72;4988630;28;20210;-73
2024/01/08 11:34:10;;;;;;;4.22;3.83;;;;;;;-1.15;59.90;98614.59;5004518;28;20206;-72
2024/01/08 11:36:45;;;;;;;5.97;5.38;;;;;;;-1.03;59.45;98613.69;5003332;28;20294;-72